Time;durP1;ratioP1;P1;durP2;ratioP2;P2;SDS_P1;SDS_P2;PMS_P1;PMS_P2;Temp;Humidity;BMP_temperature;BMP_pressure;BME280_temperature;BME280_humidity;BME280_pressure;Samples;Min_cycle;Max_cycle;Signal;HPM_P1;HPM_P2
2021/03/16 05:42:56;;;;;;;25.07;15.20;;;;;;;3.51;100.00;97329.00;1732787;79;21191;-49
2021/03/16 05:45:44;;;;;;;26.47;15.13;;;;;;;3.54;100.00;97325.98;1725531;82;21191;-49
2021/03/16 05:48:34;;;;;;;28.77;17.87;;;;;;;3.58;100.00;97328.00;1725559;82;21194;-49
2021/03/16 05:51:22;;;;;;;26.30;16.15;;;;;;;3.64;100.00;97328.50;1711841;82;21167;-48
2021/03/16 05:54:10;;;;;;;28.37;16.53;;;;;;;3.70;100.00;97329.00;1718463;82;21267;-53
2021/03/16 05:56:59;;;;;;;27.50;16.87;;;;;;;3.75;100.00;97327.09;1717384;82;21290;-50
2021/03/16 05:59:50;;;;;;;137.10;115.37;;;;;;;3.79;100.00;97328.81;1726125;82;21259;-49
2021/03/16 06:02:38;;;;;;;88.40;78.37;;;;;;;3.82;100.00;97332.30;1741065;82;21177;-49
2021/03/16 06:05:27;;;;;;;60.97;49.83;;;;;;;3.89;100.00;97330.48;1697499;83;21157;-49
2021/03/16 06:08:15;;;;;;;76.80;57.43;;;;;;;3.94;100.00;97328.88;1734923;81;21245;-53
2021/03/16 06:11:06;;;;;;;72.92;57.55;;;;;;;3.95;100.00;97334.37;1733745;81;21133;-60
2021/03/16 06:13:55;;;;;;;52.65;34.78;;;;;;;4.02;100.00;97336.20;1692551;82;21159;-49
2021/03/16 06:16:45;;;;;;;57.60;37.47;;;;;;;4.07;100.00;97341.11;1710307;82;21613;-51
2021/03/16 06:19:36;;;;;;;107.58;75.22;;;;;;;4.12;100.00;97336.57;1749303;81;21357;-57
2021/03/16 06:22:24;;;;;;;46.60;30.67;;;;;;;4.16;100.00;97336.47;1748207;81;21149;-55
2021/03/16 06:25:12;;;;;;;43.03;35.80;;;;;;;4.19;100.00;97339.48;1740705;81;21198;-55
2021/03/16 06:28:12;;;;;;;115.40;96.42;;;;;;;4.24;100.00;97342.76;1689220;83;21130;-50
2021/03/16 06:31:02;;;;;;;42.45;29.90;;;;;;;4.31;100.00;97351.40;1719936;83;21300;-49
2021/03/16 06:33:52;;;;;;;78.55;70.25;;;;;;;4.32;100.00;97345.67;1714313;83;21138;-53
2021/03/16 06:36:43;;;;;;;42.73;30.50;;;;;;;4.36;100.00;97345.06;1711144;82;21214;-48
2021/03/16 06:39:32;;;;;;;50.50;38.95;;;;;;;4.40;100.00;97349.36;1715041;83;21308;-48
2021/03/16 06:42:23;;;;;;;52.53;41.42;;;;;;;4.39;100.00;97348.55;1760577;81;21229;-52
2021/03/16 06:45:11;;;;;;;;;;;;;;;4.39;100.00;97343.84;1777665;80;21112;-51
2021/03/16 06:48:18;;;;;;;62.87;51.60;;;;;;;4.39;100.00;97346.45;1740801;81;20262;-49
2021/03/16 06:50:55;;;;;;;34.53;23.32;;;;;;;4.42;100.00;97348.16;1814921;78;23168;-51
2021/03/16 06:53:43;;;;;;;80.85;61.08;;;;;;;4.37;100.00;97350.58;1795016;78;21156;-49
2021/03/16 06:56:32;;;;;;;32.00;20.20;;;;;;;4.36;100.00;97348.15;1798657;78;21186;-52
2021/03/16 06:59:24;;;;;;;85.70;64.53;;;;;;;4.36;100.00;97341.16;1753066;81;21148;-49
2021/03/16 07:02:16;;;;;;;81.55;62.55;;;;;;;4.37;100.00;97342.75;1773420;79;21166;-50
2021/03/16 07:05:05;;;;;;;49.77;36.58;;;;;;;4.45;100.00;97350.84;1759744;79;21183;-52
2021/03/16 07:07:54;;;;;;;58.30;36.60;;;;;;;4.56;100.00;97355.94;1763679;81;21154;-50
2021/03/16 07:10:43;;;;;;;39.98;27.02;;;;;;;4.65;100.00;97347.69;1759656;81;21138;-50
2021/03/16 07:13:33;;;;;;;54.70;37.93;;;;;;;4.69;100.00;97342.84;1731785;81;21727;-51
2021/03/16 07:16:23;;;;;;;70.30;53.30;;;;;;;4.75;100.00;97353.25;1755124;81;21196;-50
2021/03/16 07:19:11;;;;;;;43.20;31.85;;;;;;;4.81;100.00;97347.70;1760317;81;21269;-52
2021/03/16 07:22:00;;;;;;;51.65;38.85;;;;;;;4.86;100.00;97353.61;1775316;80;21154;-53
2021/03/16 07:24:47;;;;;;;39.88;26.82;;;;;;;4.88;100.00;97353.72;1733109;81;21588;-51
2021/03/16 07:27:37;;;;;;;42.40;29.52;;;;;;;4.92;100.00;97355.39;1734136;81;21205;-53
2021/03/16 07:30:28;;;;;;;39.95;25.50;;;;;;;4.90;100.00;97354.81;1782225;80;21339;-55
2021/03/16 07:33:18;;;;;;;47.17;34.67;;;;;;;4.87;100.00;97361.73;1743888;81;21600;-44
2021/03/16 07:36:07;;;;;;;42.25;27.10;;;;;;;4.83;100.00;97356.15;1765280;81;21226;-51
2021/03/16 07:38:56;;;;;;;48.05;31.20;;;;;;;4.86;100.00;97355.72;1747630;81;21157;-54
2021/03/16 07:41:45;;;;;;;42.90;29.10;;;;;;;4.91;100.00;97359.81;1745288;81;21176;-61
2021/03/16 07:44:42;;;;;;;105.83;94.35;;;;;;;4.97;100.00;97356.87;1762268;81;21187;-54
2021/03/16 07:47:38;;;;;;;46.65;31.85;;;;;;;5.02;100.00;97359.16;1744498;82;21257;-54
2021/03/16 07:50:29;;;;;;;66.07;52.13;;;;;;;5.05;100.00;97364.48;1745078;81;21204;-58
2021/03/16 07:53:26;;;;;;;71.60;40.50;;;;;;;5.06;100.00;97365.58;1745742;82;21338;-56
2021/03/16 07:56:18;;;;;;;40.85;27.48;;;;;;;5.13;100.00;97373.88;1773980;80;21534;-54
2021/03/16 07:59:06;;;;;;;;;;;;;;;5.12;100.00;97374.90;1743340;82;21158;-53
2021/03/16 08:01:54;;;;;;;54.35;35.20;;;;;;;5.15;100.00;97373.96;1747993;81;20165;-56
2021/03/16 08:04:44;;;;;;;129.72;78.15;;;;;;;5.22;100.00;97373.44;1818041;79;21311;-54
2021/03/16 08:07:32;;;;;;;80.53;45.70;;;;;;;5.27;100.00;97372.79;1817249;78;21165;-55
2021/03/16 08:10:31;;;;;;;143.70;112.75;;;;;;;5.24;100.00;97367.49;1818309;79;21778;-52
2021/03/16 08:13:21;;;;;;;96.92;70.95;;;;;;;5.27;100.00;97358.42;1796168;78;21141;-54
2021/03/16 08:16:13;;;;;;;173.62;126.15;;;;;;;5.28;100.00;97365.27;1791009;78;21182;-54
2021/03/16 08:19:14;;;;;;;54.48;37.95;;;;;;;5.33;100.00;97358.88;1814603;78;21591;-55
2021/03/16 08:22:02;;;;;;;48.73;30.33;;;;;;;5.43;100.00;97357.92;1815020;78;21162;-54
2021/03/16 08:25:03;;;;;;;87.30;52.85;;;;;;;5.50;100.00;97363.89;1791602;80;21268;-53
2021/03/16 08:27:52;;;;;;;48.90;33.33;;;;;;;5.57;100.00;97367.80;1816179;79;21204;-52
2021/03/16 08:30:39;;;;;;;116.90;74.82;;;;;;;5.60;100.00;97368.16;1816783;79;21172;-54
2021/03/16 08:33:29;;;;;;;59.93;43.28;;;;;;;5.65;100.00;97374.57;1815244;79;21235;-57
2021/03/16 08:36:17;;;;;;;40.08;27.50;;;;;;;5.59;100.00;97377.53;1786071;78;21168;-64
2021/03/16 08:39:07;;;;;;;40.55;25.60;;;;;;;5.51;100.00;97377.28;1786404;80;21156;-57
2021/03/16 08:41:59;;;;;;;69.03;40.38;;;;;;;5.42;100.00;97369.39;1786427;80;21375;-54
2021/03/16 08:44:47;;;;;;;44.55;27.30;;;;;;;5.39;100.00;97371.61;1786370;80;21105;-61
2021/03/16 08:47:37;;;;;;;59.60;45.65;;;;;;;5.52;100.00;97370.24;1786215;80;21195;-61
2021/03/16 08:50:26;;;;;;;44.55;30.35;;;;;;;5.67;100.00;97375.15;1798786;78;21507;-56
2021/03/16 08:53:23;;;;;;;42.75;28.70;;;;;;;5.85;100.00;97381.78;1748435;81;21157;-55
2021/03/16 08:56:24;;;;;;;;;;;;;;;6.01;100.00;97386.98;1742517;81;21314;-58
2021/03/16 08:59:17;;;;;;;57.95;35.20;;;;;;;6.17;100.00;97387.76;1737536;81;20165;-56
2021/03/16 09:02:08;;;;;;;63.68;36.75;;;;;;;6.25;100.00;97392.73;1762295;80;21319;-56
2021/03/16 09:04:59;;;;;;;44.27;29.57;;;;;;;6.30;100.00;97389.45;1739501;81;21288;-56
2021/03/16 09:07:48;;;;;;;52.17;34.63;;;;;;;6.31;100.00;97394.48;1757357;81;21198;-56
2021/03/16 09:10:37;;;;;;;41.90;28.10;;;;;;;6.32;100.00;97400.02;1728205;81;21204;-54
2021/03/16 09:13:29;;;;;;;54.73;39.33;;;;;;;6.34;100.00;97403.71;1737899;81;21198;-55
2021/03/16 09:16:24;;;;;;;97.70;68.35;;;;;;;6.35;100.00;97402.69;1726567;82;21196;-54
2021/03/16 09:19:21;;;;;;;49.58;33.10;;;;;;;6.41;100.00;97404.44;1738849;81;21632;-64
2021/03/16 09:22:13;;;;;;;61.28;39.10;;;;;;;6.50;100.00;97399.23;1747985;81;21751;-56
2021/03/16 09:25:03;;;;;;;91.78;68.80;;;;;;;6.68;100.00;97396.33;1693687;81;21183;-58
2021/03/16 09:27:51;;;;;;;308.63;248.20;;;;;;;6.91;100.00;97400.40;1742020;81;21153;-58
2021/03/16 09:30:48;;;;;;;103.10;82.82;;;;;;;7.07;100.00;97395.08;1751353;81;21185;-56
2021/03/16 09:33:37;;;;;;;49.40;32.28;;;;;;;7.18;100.00;97398.27;1726826;81;21142;-64
2021/03/16 09:36:34;;;;;;;43.60;31.00;;;;;;;7.23;100.00;97408.09;1746745;80;21209;-53
2021/03/16 09:39:17;;;;;;;66.05;56.02;;;;;;;7.19;100.00;97398.55;1765911;79;23143;-56
2021/03/16 09:41:56;;;;;;;50.98;37.78;;;;;;;7.14;100.00;97401.83;1712054;83;21160;-54
2021/03/16 09:44:34;;;;;;;38.40;27.00;;;;;;;7.22;100.00;97410.40;1696350;82;21486;-57
2021/03/16 09:47:05;;;;;;;46.90;32.20;;;;;;;7.36;100.00;97407.91;1708085;82;21223;-56
2021/03/16 09:49:40;;;;;;;40.52;26.42;;;;;;;7.50;100.00;97406.69;1709058;84;21206;-56
2021/03/16 09:52:14;;;;;;;40.75;27.00;;;;;;;7.60;100.00;97407.47;1710857;83;21348;-56
2021/03/16 09:54:52;;;;;;;40.25;26.23;;;;;;;7.67;100.00;97405.55;1678552;83;21182;-56
2021/03/16 09:57:35;;;;;;;39.15;25.80;;;;;;;7.72;100.00;97407.79;1722968;83;21197;-58
2021/03/16 10:00:09;;;;;;;39.13;26.37;;;;;;;7.75;100.00;97415.73;1723263;83;21166;-55
2021/03/16 10:02:42;;;;;;;39.58;26.15;;;;;;;7.77;98.86;97416.81;1678854;84;21319;-56
2021/03/16 10:05:20;;;;;;;42.75;27.58;;;;;;;7.76;98.18;97413.91;1679734;84;21161;-57
2021/03/16 10:07:54;;;;;;;42.80;29.10;;;;;;;7.75;98.01;97418.36;1643295;85;21330;-52
2021/03/16 10:10:28;;;;;;;39.10;26.60;;;;;;;7.79;98.39;97406.38;1637846;85;21280;-55
2021/03/16 10:13:08;;;;;;;44.48;31.75;;;;;;;7.89;98.00;97404.52;1659147;85;21195;-57
2021/03/16 10:15:42;;;;;;;41.75;28.12;;;;;;;8.00;98.19;97407.67;1697930;82;21161;-57
2021/03/16 10:18:19;;;;;;;45.75;31.27;;;;;;;8.20;99.94;97409.48;1728685;82;21201;-58
2021/03/16 10:20:48;;;;;;;47.93;32.93;;;;;;;8.42;97.13;97408.92;1704691;83;21197;-53
2021/03/16 10:23:20;;;;;;;39.18;26.97;;;;;;;8.57;96.84;97404.53;1705014;83;21161;-55
2021/03/16 10:26:00;;;;;;;47.88;36.08;;;;;;;8.71;96.23;97397.48;1697015;82;21656;-55
2021/03/16 10:28:40;;;;;;;50.60;37.78;;;;;;;8.86;95.75;97397.00;1684556;83;21287;-53
2021/03/16 10:31:25;;;;;;;42.62;27.73;;;;;;;9.03;93.37;97394.45;1706418;82;21185;-56
2021/03/16 10:33:58;;;;;;;37.63;26.30;;;;;;;9.13;92.83;97401.75;1715267;82;21640;-55
2021/03/16 10:36:35;;;;;;;36.60;24.07;;;;;;;9.21;92.53;97401.36;1708148;82;21726;-56
2021/03/16 10:39:08;;;;;;;34.43;23.98;;;;;;;9.32;90.19;97411.05;1693350;82;21245;-56
2021/03/16 10:41:39;;;;;;;35.80;24.77;;;;;;;9.29;86.76;97404.44;1712650;82;21208;-57
2021/03/16 10:44:10;;;;;;;40.28;24.82;;;;;;;9.16;85.89;97402.58;1711442;84;21345;-56
2021/03/16 10:46:41;;;;;;;40.28;26.95;;;;;;;9.11;86.08;97408.53;1706483;84;22222;-58
2021/03/16 10:49:11;;;;;;;38.83;24.57;;;;;;;9.11;87.21;97406.42;1715678;82;21322;-55
2021/03/16 10:51:44;;;;;;;34.40;23.38;;;;;;;9.13;85.43;97405.17;1721043;83;21198;-57
2021/03/16 10:54:13;;;;;;;35.58;25.37;;;;;;;9.03;84.80;97400.50;1690273;83;21201;-62
2021/03/16 10:56:43;;;;;;;36.68;25.77;;;;;;;9.00;84.93;97408.05;1685058;83;21165;-58
2021/03/16 10:59:15;;;;;;;39.73;28.80;;;;;;;9.00;84.10;97404.10;1723585;82;21580;-60
2021/03/16 11:01:44;;;;;;;47.30;29.32;;;;;;;9.02;85.66;97397.59;1720552;83;21486;-56
2021/03/16 11:04:18;;;;;;;40.12;26.62;;;;;;;9.20;86.99;97395.31;1712294;82;21173;-56
2021/03/16 11:06:48;;;;;;;39.50;25.68;;;;;;;9.33;85.79;97395.54;1710628;82;21321;-55
2021/03/16 11:09:23;;;;;;;35.00;23.90;;;;;;;9.46;85.67;97385.24;1689768;82;21299;-59
2021/03/16 11:12:06;;;;;;;35.83;24.23;;;;;;;9.56;85.09;97383.59;1696748;82;21277;-57
2021/03/16 11:14:36;;;;;;;34.58;23.67;;;;;;;9.66;82.96;97389.56;1693659;82;21176;-57
2021/03/16 11:17:07;;;;;;;55.52;44.08;;;;;;;9.69;82.38;97381.70;1707716;82;21500;-56
2021/03/16 11:19:37;;;;;;;41.48;28.12;;;;;;;9.74;82.48;97375.20;1696250;82;22525;-57
2021/03/16 11:22:07;;;;;;;37.25;26.90;;;;;;;9.84;80.89;97384.07;1697699;82;21635;-57
2021/03/16 11:24:37;;;;;;;38.02;26.05;;;;;;;9.89;80.01;97375.98;1699208;82;21331;-53
2021/03/16 11:27:09;;;;;;;56.92;49.08;;;;;;;9.92;79.48;97378.95;1710466;82;21173;-56
2021/03/16 11:29:40;;;;;;;37.40;25.48;;;;;;;9.97;78.43;97381.64;1721449;82;21327;-54
2021/03/16 11:32:10;;;;;;;42.33;31.42;;;;;;;9.98;77.34;97381.14;1707712;82;21596;-58
2021/03/16 11:34:58;;;;;;;77.20;69.07;;;;;;;9.93;77.85;97381.06;1715858;82;21185;-58
2021/03/16 11:37:48;;;;;;;44.67;32.67;;;;;;;9.93;77.85;97381.06;1719124;83;21224;-57
2021/03/16 11:40:38;;;;;;;47.62;34.58;;;;;;;9.98;77.98;97374.56;1676325;82;21142;-60
2021/03/16 11:43:33;;;;;;;39.08;28.17;;;;;;;9.92;76.64;97378.13;1703764;82;21324;-60
2021/03/16 11:46:22;;;;;;;39.48;27.87;;;;;;;9.96;75.87;97384.52;1734210;81;21185;-60
2021/03/16 11:49:10;;;;;;;37.05;26.65;;;;;;;10.02;76.37;97376.45;1693853;83;21220;-59
2021/03/16 11:51:58;;;;;;;42.27;31.52;;;;;;;9.85;76.43;97367.23;1683788;85;21158;-62
2021/03/16 11:54:48;;;;;;;39.78;28.60;;;;;;;9.74;76.63;97366.80;1682678;82;21166;-56
2021/03/16 11:57:36;;;;;;;43.33;28.10;;;;;;;9.61;76.90;97366.31;1714170;82;21176;-57
2021/03/16 12:00:25;;;;;;;41.02;28.02;;;;;;;9.38;78.11;97369.86;1714822;84;21195;-59
2021/03/16 12:03:14;;;;;;;39.67;27.80;;;;;;;9.19;78.33;97367.43;1683578;82;21308;-58
2021/03/16 12:06:03;;;;;;;43.52;28.40;;;;;;;8.94;80.31;97357.20;1707731;82;21154;-59
2021/03/16 12:08:51;;;;;;;51.90;38.55;;;;;;;8.72;80.77;97351.02;1702813;81;21150;-55
2021/03/16 12:11:43;;;;;;;45.23;33.35;;;;;;;8.60;82.22;97348.41;1706215;82;21189;-65
2021/03/16 12:14:34;;;;;;;47.93;34.63;;;;;;;8.63;83.57;97355.81;1716822;82;21193;-60
2021/03/16 12:17:27;;;;;;;54.73;41.30;;;;;;;8.66;82.07;97347.97;1725681;82;21183;-59
2021/03/16 12:20:15;;;;;;;38.30;26.95;;;;;;;8.73;81.70;97349.46;1697991;82;21319;-63
2021/03/16 12:23:04;;;;;;;39.88;27.75;;;;;;;8.77;81.19;97350.60;1712379;82;21156;-61
2021/03/16 12:25:54;;;;;;;69.47;50.85;;;;;;;8.69;80.51;97350.15;1708844;82;21185;-61
2021/03/16 12:28:42;;;;;;;52.03;36.55;;;;;;;8.67;81.53;97356.16;1665900;85;21534;-58
2021/03/16 12:31:32;;;;;;;41.40;29.67;;;;;;;8.85;81.93;97356.00;1684418;82;21173;-62
2021/03/16 12:34:20;;;;;;;53.73;39.70;;;;;;;9.07;81.57;97361.42;1703792;82;21335;-64
2021/03/16 12:37:09;;;;;;;65.62;48.30;;;;;;;9.10;80.89;97366.71;1680562;84;21158;-59
2021/03/16 12:39:57;;;;;;;43.90;31.00;;;;;;;9.06;81.16;97370.34;1700345;83;21150;-59
2021/03/16 12:42:49;;;;;;;65.92;50.45;;;;;;;9.05;80.79;97372.66;1698850;83;21138;-60
2021/03/16 12:45:42;;;;;;;44.20;31.60;;;;;;;9.02;79.75;97371.31;1698586;83;21145;-61
2021/03/16 12:48:40;;;;;;;45.63;34.78;;;;;;;9.02;80.35;97366.58;1710970;83;21170;-59
2021/03/16 12:51:32;;;;;;;39.95;26.95;;;;;;;9.10;81.01;97366.71;1688673;85;21226;-63
2021/03/16 12:54:22;;;;;;;39.33;26.97;;;;;;;9.28;78.81;97370.47;1688791;84;21216;-60
2021/03/16 12:57:09;;;;;;;37.45;27.27;;;;;;;9.41;77.91;97384.66;1688677;84;21315;-57
2021/03/16 12:59:57;;;;;;;43.68;28.73;;;;;;;9.45;76.48;97379.19;1689301;85;21185;-61
2021/03/16 13:02:46;;;;;;;39.10;25.17;;;;;;;9.48;76.40;97377.42;1712783;82;21105;-62
2021/03/16 13:05:36;;;;;;;53.47;45.70;;;;;;;9.48;76.19;97370.05;1684116;82;21197;-62
2021/03/16 13:08:26;;;;;;;38.58;28.30;;;;;;;9.50;75.78;97377.97;1712842;82;21157;-64
2021/03/16 13:11:14;;;;;;;50.92;39.90;;;;;;;9.52;75.72;97377.23;1710768;83;21273;-56
2021/03/16 13:14:03;;;;;;;43.45;31.82;;;;;;;9.47;75.61;97376.34;1681604;85;21332;-54
2021/03/16 13:16:53;;;;;;;47.55;31.30;;;;;;;9.45;76.05;97386.28;1707385;82;21209;-60
2021/03/16 13:19:42;;;;;;;38.00;25.65;;;;;;;9.38;76.75;97377.23;1685579;82;21441;-55
2021/03/16 13:22:31;;;;;;;45.65;30.50;;;;;;;9.29;76.93;97379.97;1699442;83;21211;-56
2021/03/16 13:25:22;;;;;;;43.98;31.42;;;;;;;9.18;77.40;97387.39;1675857;83;21137;-57
2021/03/16 13:28:11;;;;;;;50.65;32.55;;;;;;;9.16;77.71;97377.60;1715941;83;21194;-68
2021/03/16 13:31:01;;;;;;;45.65;27.73;;;;;;;9.19;77.82;97384.52;1717336;82;21178;-62
2021/03/16 13:33:50;;;;;;;42.13;28.80;;;;;;;9.22;78.01;97385.34;1709256;82;21313;-57
2021/03/16 13:36:39;;;;;;;50.90;34.70;;;;;;;9.23;78.05;97384.34;1688846;83;21183;-56
2021/03/16 13:39:27;;;;;;;39.75;28.40;;;;;;;9.23;78.66;97377.77;1711505;82;21184;-67
2021/03/16 13:42:17;;;;;;;43.78;29.32;;;;;;;9.25;78.14;97384.09;1709122;83;21163;-57
2021/03/16 13:45:10;;;;;;;40.03;27.32;;;;;;;9.19;78.75;97388.98;1700229;83;21330;-56
2021/03/16 13:47:58;;;;;;;42.75;27.90;;;;;;;9.18;79.47;97387.39;1688349;82;21337;-60
2021/03/16 13:50:46;;;;;;;40.63;29.82;;;;;;;9.15;79.16;97394.41;1705868;83;21169;-56
2021/03/16 13:53:40;;;;;;;48.25;30.23;;;;;;;8.95;80.36;97390.88;1703308;83;21348;-57
2021/03/16 13:56:28;;;;;;;51.67;33.63;;;;;;;8.95;80.36;97390.88;1701298;83;21155;-55
2021/03/16 13:59:16;;;;;;;52.20;34.53;;;;;;;8.84;81.17;97395.13;1701302;82;21233;-61
2021/03/16 14:02:04;;;;;;;42.20;30.62;;;;;;;8.74;81.78;97392.30;1716829;81;21154;-57
2021/03/16 14:04:59;;;;;;;42.62;29.48;;;;;;;8.57;82.63;97390.88;1708753;83;21320;-57
2021/03/16 14:07:59;;;;;;;45.43;30.60;;;;;;;8.40;83.79;97392.61;1672323;84;21158;-54
2021/03/16 14:10:48;;;;;;;46.18;32.08;;;;;;;8.35;85.38;97392.46;1694455;82;21103;-62
2021/03/16 14:13:37;;;;;;;47.05;33.13;;;;;;;8.39;85.98;97392.33;1682147;84;21354;-60
2021/03/16 14:16:27;;;;;;;45.38;32.45;;;;;;;8.42;84.98;97391.34;1719740;82;21196;-58
2021/03/16 14:19:15;;;;;;;51.30;32.13;;;;;;;8.37;84.48;97394.36;1731039;82;21174;-56
2021/03/16 14:22:03;;;;;;;39.80;26.30;;;;;;;8.25;85.01;97389.88;1740921;81;21216;-57
2021/03/16 14:24:51;;;;;;;39.50;26.65;;;;;;;8.17;88.83;97388.13;1720035;82;21201;-59
2021/03/16 14:27:43;;;;;;;38.60;25.05;;;;;;;7.88;94.01;97401.10;1690577;83;21166;-56
2021/03/16 14:30:30;;;;;;;36.55;23.12;;;;;;;7.60;98.83;97398.30;1740620;82;21202;-55
2021/03/16 14:33:18;;;;;;;36.28;23.95;;;;;;;7.43;100.00;97412.55;1716120;81;21177;-57
2021/03/16 14:36:07;;;;;;;34.48;23.18;;;;;;;7.25;100.00;97398.97;1703941;82;21301;-57
2021/03/16 14:38:57;;;;;;;35.70;23.90;;;;;;;7.15;100.00;97410.48;1714721;81;21166;-54
2021/03/16 14:41:45;;;;;;;39.48;25.43;;;;;;;7.00;100.00;97403.53;1689000;82;21212;-59
2021/03/16 14:44:33;;;;;;;35.23;25.27;;;;;;;6.82;100.00;97402.50;1711060;82;21214;-56
2021/03/16 14:47:21;;;;;;;40.88;24.25;;;;;;;6.65;100.00;97396.23;1710293;84;21212;-55
2021/03/16 14:50:11;;;;;;;42.60;26.95;;;;;;;6.52;100.00;97401.63;1699220;84;21586;-56
2021/03/16 14:53:01;;;;;;;;;;;;;;;6.37;100.00;97391.00;1656900;87;21245;-54
2021/03/16 14:55:49;;;;;;;40.98;26.20;;;;;;;6.23;100.00;97403.91;1627949;88;20148;-58
2021/03/16 14:58:37;;;;;;;40.75;27.17;;;;;;;6.13;100.00;97401.77;1642925;87;21214;-54
2021/03/16 15:01:28;;;;;;;40.98;26.85;;;;;;;6.09;100.00;97399.81;1642269;87;21226;-55
